Pagrindinis puslapis
METAR-TAF:

METAR-TAF

Oro uostai :

Kirkenesas, Norvegija

platuma: 69-44N, ilguma: 029-54E, Aukštis: 9 m

Dabartinis oras

Ataskaita buvo paskelbta 21 minutes, ne 23:50 UTC
Vėjas 4 kt iš Pietų
Temperatūra -7°C
Drėgmė 93%
Slėgis 995 hPa
Matomumas: 6000 m
sniegas

METAR: ENKR 062350Z AUTO 17004KT 6000 -SN FEW002/// SCT008/// BKN023/// M07/M08 Q0995 RMK WIND 731FT 13003KT

Laikas: 01:11 (00:11 UTC)

Prognozė

Ataskaita buvo paskelbta 1 valandą ir 11 minutes, ne 23:00 UTC
Prognozė galioja nuo 07 metu 00 UTC su 07 metu 09 UTC
Vėjas 8 kt iš Pietų/Pietryčių
Matomumas 10 km arba daugiau
Išsisklaidę debesys ne aukštis 1000 ft
Su prošvaistėmis ne aukštis 2000 ft
Tikimybė 40%
nuo 07 metu 00 UTC su 07 metu 09 UTC
Matomumas: 2500 m
ne aukštis 1200 ft
sniegas

TAF: ENKR 062300Z 0700/0709 16008KT 9999 SCT010 BKN020 PROB40 0700/0709 2500 -SN VV012

Orai ataskaitas ir orų prognozės (METAR, TAF).

turimą stotys yra geltonos ir raudonos taškus žemėlapyje.

Perkelti pele per norėdami pamatyti stoties vardą.

Tada spustelėkite, norėdami matyti oro stebėjimo ir prognozės.

Norėdami pakeisti žemėlapį: spustelėkite ant žalios mygtukų su juodo kryžiaus žemyn,; žalią mygtuką su brūkšneliu, jei norite nutolinti; arba žalių rodyklių gretimoms žemėlapius.


METAR-TAF: